Time;durP1;ratioP1;P1;durP2;ratioP2;P2;SDS_P1;SDS_P2;PMS_P1;PMS_P2;Temp;Humidity;BMP_temperature;BMP_pressure;BME280_temperature;BME280_humidity;BME280_pressure;Samples;Min_cycle;Max_cycle;Signal;HPM_P1;HPM_P2
2022/09/13 00:00:29;;;;;;;0.45;0.45;;;14.10;99.90;;;;;;4409174;32;20437;-63
2022/09/13 00:02:54;;;;;;;0.50;0.50;;;14.00;99.90;;;;;;4432919;32;20065;-62
2022/09/13 00:05:20;;;;;;;0.40;0.40;;;14.00;99.90;;;;;;4430973;32;20669;-63
2022/09/13 00:07:45;;;;;;;0.70;0.45;;;14.10;99.90;;;;;;4434811;32;20097;-63
2022/09/13 00:10:11;;;;;;;0.77;0.77;;;14.10;99.90;;;;;;4431399;32;20097;-63
2022/09/13 00:12:36;;;;;;;0.30;0.30;;;14.20;99.90;;;;;;4434817;32;20096;-62
2022/09/13 00:15:02;;;;;;;0.50;0.50;;;14.20;99.90;;;;;;4427929;32;20516;-63
2022/09/13 00:17:28;;;;;;;0.75;0.75;;;14.10;99.90;;;;;;4429200;32;20097;-63
2022/09/13 00:19:53;;;;;;;1.17;1.08;;;14.00;99.90;;;;;;4429049;32;20081;-63
2022/09/13 00:22:19;;;;;;;0.50;0.50;;;14.00;99.90;;;;;;4432669;32;20513;-63
2022/09/13 00:24:44;;;;;;;14.60;0.60;;;14.00;99.90;;;;;;4431163;32;20080;-63
2022/09/13 00:27:11;;;;;;;0.60;0.60;;;14.00;99.90;;;;;;4432796;32;20069;-63
2022/09/13 00:29:36;;;;;;;0.37;0.37;;;13.90;99.90;;;;;;4409747;32;20108;-62
2022/09/13 00:32:02;;;;;;;0.50;0.50;;;14.00;99.90;;;;;;4425746;32;20161;-62
2022/09/13 00:34:27;;;;;;;0.60;0.60;;;13.90;99.90;;;;;;4429774;32;20073;-63
2022/09/13 00:36:53;;;;;;;0.45;0.45;;;13.90;99.90;;;;;;4429038;32;20524;-63
2022/09/13 00:39:18;;;;;;;0.40;0.40;;;13.90;99.90;;;;;;4434849;32;20126;-62
2022/09/13 00:41:44;;;;;;;0.50;0.50;;;13.90;99.90;;;;;;4430233;32;20509;-63
2022/09/13 00:44:49;;;;;;;0.30;0.30;;;13.90;99.90;;;;;;4430846;32;20085;-62
2022/09/13 00:47:20;;;;;;;0.50;0.50;;;14.00;99.90;;;;;;4419414;32;20082;-62
2022/09/13 00:49:47;;;;;;;0.50;0.50;;;14.10;99.90;;;;;;4431476;32;20127;-62
2022/09/13 00:52:16;;;;;;;0.90;0.62;;;14.00;99.90;;;;;;4430277;32;20081;-62
2022/09/13 00:54:49;;;;;;;0.45;0.45;;;14.00;99.90;;;;;;4429895;32;20088;-62
2022/09/13 00:57:17;;;;;;;0.30;0.30;;;13.90;99.90;;;;;;4425331;32;20131;-62
2022/09/13 01:00:10;;;;;;;0.40;0.40;;;13.80;99.90;;;;;;4408843;32;20082;-63
2022/09/13 01:02:37;;;;;;;0.60;0.60;;;13.80;99.90;;;;;;4430107;32;20131;-62
2022/09/13 01:05:03;;;;;;;0.47;0.47;;;13.80;99.90;;;;;;4428213;32;20060;-62
2022/09/13 01:07:29;;;;;;;0.52;0.52;;;13.80;99.90;;;;;;4426967;32;20191;-62
2022/09/13 01:09:54;;;;;;;0.52;0.52;;;13.90;99.90;;;;;;4432267;32;20422;-62
2022/09/13 01:12:32;;;;;;;0.40;0.40;;;14.00;99.90;;;;;;4431278;32;20065;-63
2022/09/13 01:14:59;;;;;;;0.50;0.50;;;14.10;99.90;;;;;;4431003;32;20137;-62
2022/09/13 01:17:27;;;;;;;0.68;0.60;;;14.00;99.90;;;;;;4432461;32;20077;-63
2022/09/13 01:19:53;;;;;;;0.35;0.35;;;13.90;99.90;;;;;;4431823;32;20091;-63
2022/09/13 01:22:40;;;;;;;0.50;0.50;;;13.90;99.90;;;;;;4433457;32;20063;-63
2022/09/13 01:25:38;;;;;;;0.40;0.40;;;13.80;99.90;;;;;;4428080;32;21266;-62
2022/09/13 01:28:16;;;;;;;4.28;1.42;;;13.80;99.90;;;;;;4425622;32;20536;-62
2022/09/13 01:30:48;;;;;;;0.45;0.45;;;13.90;99.90;;;;;;4411221;32;20070;-63
2022/09/13 01:33:32;;;;;;;0.50;0.50;;;14.00;99.90;;;;;;4434149;32;20074;-63
2022/09/13 01:36:12;;;;;;;1.00;0.80;;;14.10;99.90;;;;;;4431464;32;20080;-62
2022/09/13 01:38:53;;;;;;;0.50;0.50;;;14.00;99.90;;;;;;4431332;32;20096;-63
2022/09/13 01:41:45;;;;;;;0.60;0.60;;;13.80;99.90;;;;;;4432581;32;20830;-63
2022/09/13 01:44:38;;;;;;;0.60;0.60;;;13.90;99.90;;;;;;4429141;32;20525;-63
2022/09/13 01:47:28;;;;;;;0.30;0.30;;;14.00;99.90;;;;;;4430164;32;20102;-62
2022/09/13 01:50:14;;;;;;;0.47;0.47;;;13.90;99.90;;;;;;4431455;32;20065;-63
2022/09/13 01:53:00;;;;;;;0.55;0.55;;;13.80;99.90;;;;;;4431172;32;20089;-62
2022/09/13 01:55:47;;;;;;;0.37;0.37;;;13.60;99.90;;;;;;4431120;32;20531;-63
2022/09/13 01:58:23;;;;;;;0.60;0.60;;;13.60;99.90;;;;;;4420488;32;20213;-63
2022/09/13 02:01:03;;;;;;;0.52;0.50;;;13.60;99.90;;;;;;4410938;32;20569;-63
2022/09/13 02:03:35;;;;;;;0.50;0.50;;;13.60;99.90;;;;;;4431891;32;20074;-62
2022/09/13 02:06:07;;;;;;;0.50;0.50;;;13.50;99.90;;;;;;4435014;32;20102;-62
2022/09/13 02:08:45;;;;;;;0.60;0.60;;;13.60;99.90;;;;;;4434712;32;20069;-62
2022/09/13 02:11:13;;;;;;;0.50;0.50;;;13.60;99.90;;;;;;4430520;32;20118;-62
2022/09/13 02:13:49;;;;;;;0.32;0.32;;;13.60;99.90;;;;;;4430555;32;21321;-63
2022/09/13 02:16:20;;;;;;;0.55;0.55;;;13.60;99.90;;;;;;4430663;32;20070;-63
2022/09/13 02:18:49;;;;;;;0.90;0.62;;;13.50;99.90;;;;;;4428518;32;20065;-62
2022/09/13 02:21:20;;;;;;;0.50;0.50;;;13.40;99.90;;;;;;4432911;32;20158;-63
2022/09/13 02:23:50;;;;;;;0.50;0.50;;;13.40;99.90;;;;;;4431269;32;20579;-62
2022/09/13 02:26:19;;;;;;;0.57;0.57;;;13.40;99.90;;;;;;4428776;32;20119;-62
2022/09/13 02:28:51;;;;;;;0.50;0.50;;;13.30;99.90;;;;;;4416081;32;20078;-63
2022/09/13 02:31:22;;;;;;;0.30;0.30;;;13.30;99.90;;;;;;4423207;32;20144;-63
2022/09/13 02:33:53;;;;;;;0.50;0.50;;;13.30;99.90;;;;;;4431717;32;20088;-63
2022/09/13 02:36:25;;;;;;;0.30;0.30;;;13.30;99.90;;;;;;4432219;32;20091;-62
2022/09/13 02:38:55;;;;;;;1.37;0.55;;;13.20;99.90;;;;;;4431743;32;20469;-62
2022/09/13 02:41:29;;;;;;;0.50;0.50;;;13.20;99.90;;;;;;4431156;32;20086;-62
2022/09/13 02:44:06;;;;;;;0.40;0.40;;;13.10;99.90;;;;;;4430136;32;20552;-62
2022/09/13 02:46:59;;;;;;;0.60;0.60;;;13.20;99.90;;;;;;4433117;32;20347;-62
2022/09/13 02:49:32;;;;;;;0.68;0.68;;;13.10;99.90;;;;;;4428143;32;20418;-62
2022/09/13 02:52:09;;;;;;;0.40;0.40;;;13.10;99.90;;;;;;4430685;32;20081;-62
2022/09/13 02:54:42;;;;;;;0.50;0.50;;;13.10;99.90;;;;;;4435067;32;20102;-63
2022/09/13 02:57:15;;;;;;;0.47;0.47;;;13.20;99.90;;;;;;4429769;32;20089;-62
2022/09/13 02:59:40;;;;;;;0.70;0.70;;;13.20;99.90;;;;;;4405756;32;20068;-62
2022/09/13 03:02:10;;;;;;;0.40;0.40;;;13.20;99.90;;;;;;4429011;32;20545;-62
2022/09/13 03:04:35;;;;;;;0.40;0.40;;;13.20;99.90;;;;;;4428716;32;20097;-62
2022/09/13 03:07:04;;;;;;;1.45;1.17;;;13.10;99.90;;;;;;4430549;32;20576;-62
2022/09/13 03:09:31;;;;;;;0.40;0.40;;;13.10;99.90;;;;;;4432036;32;20077;-63
2022/09/13 03:12:22;;;;;;;0.43;0.43;;;13.10;99.90;;;;;;4430714;32;20132;-61
2022/09/13 03:15:28;;;;;;;0.50;0.50;;;13.20;99.90;;;;;;4431716;32;20069;-63
2022/09/13 03:18:24;;;;;;;2.37;0.85;;;13.10;99.90;;;;;;4421255;32;20081;-63
2022/09/13 03:21:24;;;;;;;0.62;0.52;;;13.20;99.90;;;;;;4428765;32;20128;-63
2022/09/13 03:23:57;;;;;;;0.50;0.50;;;13.30;99.90;;;;;;4428166;32;20065;-63
2022/09/13 03:26:30;;;;;;;0.60;0.60;;;13.30;99.90;;;;;;4433204;32;20081;-63
2022/09/13 03:29:06;;;;;;;0.40;0.40;;;13.20;99.90;;;;;;4413310;32;20444;-63
2022/09/13 03:31:37;;;;;;;0.35;0.35;;;13.30;99.90;;;;;;4421792;32;20064;-62
2022/09/13 03:34:11;;;;;;;0.60;0.60;;;13.30;99.90;;;;;;4431710;32;20096;-62
2022/09/13 03:36:44;;;;;;;0.43;0.43;;;13.20;99.90;;;;;;4429564;32;20156;-62
2022/09/13 03:39:41;;;;;;;0.70;0.70;;;13.20;99.90;;;;;;4429478;32;20080;-62
2022/09/13 03:42:21;;;;;;;1.15;0.50;;;13.20;99.90;;;;;;4426739;32;20160;-62
2022/09/13 03:44:49;;;;;;;0.50;0.50;;;13.20;99.90;;;;;;4433925;32;20078;-62
2022/09/13 03:47:16;;;;;;;0.40;0.40;;;13.10;99.90;;;;;;4431805;32;20598;-63
2022/09/13 03:49:43;;;;;;;0.40;0.40;;;13.10;99.90;;;;;;4430763;32;20057;-63
2022/09/13 03:52:09;;;;;;;1.25;0.80;;;13.10;99.90;;;;;;4427362;32;20993;-63
2022/09/13 03:54:37;;;;;;;0.55;0.55;;;13.10;99.90;;;;;;4431494;32;20532;-63
2022/09/13 03:57:20;;;;;;;0.43;0.43;;;13.00;99.90;;;;;;4429200;32;20129;-62
2022/09/13 03:59:50;;;;;;;0.40;0.40;;;13.00;99.90;;;;;;4404388;32;20216;-63
2022/09/13 04:02:17;;;;;;;0.55;0.55;;;13.00;99.90;;;;;;4432068;32;20127;-63
2022/09/13 04:04:43;;;;;;;0.62;0.62;;;13.00;99.90;;;;;;4430351;32;20078;-63
2022/09/13 04:07:11;;;;;;;0.60;0.60;;;13.00;99.90;;;;;;4431062;32;20076;-63
2022/09/13 04:09:37;;;;;;;33.15;0.82;;;13.00;99.90;;;;;;4428712;32;20101;-62
2022/09/13 04:12:03;;;;;;;0.40;0.40;;;13.00;99.90;;;;;;4429426;32;20062;-62
2022/09/13 04:14:28;;;;;;;1.02;0.93;;;13.10;99.90;;;;;;4430784;32;20124;-63
2022/09/13 04:16:55;;;;;;;0.45;0.45;;;13.10;99.90;;;;;;4431310;32;20092;-63
2022/09/13 04:19:22;;;;;;;0.60;0.60;;;13.10;99.90;;;;;;4428127;32;20088;-63
2022/09/13 04:21:48;;;;;;;0.68;0.57;;;13.20;99.90;;;;;;4419245;32;20068;-63
2022/09/13 04:24:15;;;;;;;0.55;0.55;;;13.30;99.90;;;;;;4380445;32;20153;-62
2022/09/13 04:26:41;;;;;;;4.25;1.00;;;13.20;99.90;;;;;;4371639;32;20573;-62
2022/09/13 04:29:06;;;;;;;0.50;0.50;;;13.20;99.90;;;;;;4360516;32;20229;-62
2022/09/13 04:31:32;;;;;;;0.62;0.62;;;13.20;99.90;;;;;;4375086;32;20097;-63
2022/09/13 04:33:59;;;;;;;1.37;0.70;;;13.30;99.90;;;;;;4432815;32;20156;-62
2022/09/13 04:36:24;;;;;;;0.50;0.50;;;13.30;99.90;;;;;;4430835;32;20144;-62
2022/09/13 04:38:50;;;;;;;0.32;0.32;;;13.30;99.90;;;;;;4428212;32;20065;-62
2022/09/13 04:41:16;;;;;;;0.70;0.70;;;13.20;99.90;;;;;;4429959;32;20243;-62
2022/09/13 04:43:42;;;;;;;1.70;1.10;;;13.20;99.90;;;;;;4427886;32;20070;-62
2022/09/13 04:46:07;;;;;;;1.00;0.95;;;13.20;99.90;;;;;;4429441;32;20068;-62
2022/09/13 04:48:33;;;;;;;0.73;0.70;;;13.20;99.90;;;;;;4431216;32;20093;-62
2022/09/13 04:51:03;;;;;;;1.23;0.93;;;13.30;99.90;;;;;;4433767;32;20462;-62
2022/09/13 04:53:29;;;;;;;0.70;0.70;;;13.40;99.90;;;;;;4393792;32;20085;-62
2022/09/13 04:56:00;;;;;;;0.40;0.40;;;13.40;99.90;;;;;;4408462;32;20132;-62
2022/09/13 04:58:26;;;;;;;0.60;0.60;;;13.40;99.90;;;;;;4420918;32;20513;-62
2022/09/13 05:00:55;;;;;;;0.85;0.85;;;13.60;99.90;;;;;;4409207;32;20209;-62
2022/09/13 05:03:21;;;;;;;0.43;0.43;;;13.70;99.90;;;;;;4405149;32;20098;-61
2022/09/13 05:05:47;;;;;;;0.43;0.43;;;13.70;99.90;;;;;;4382944;32;20187;-62
2022/09/13 05:08:12;;;;;;;0.70;0.70;;;13.70;99.90;;;;;;4376025;32;20204;-62
2022/09/13 05:10:37;;;;;;;0.47;0.47;;;13.70;99.90;;;;;;4371660;32;20168;-62
2022/09/13 05:13:03;;;;;;;1.73;0.80;;;13.80;99.90;;;;;;4378941;32;20530;-62
2022/09/13 05:15:28;;;;;;;0.50;0.50;;;13.80;99.90;;;;;;4400801;32;20147;-62
2022/09/13 05:17:54;;;;;;;1.73;0.65;;;13.80;99.90;;;;;;4381748;32;20170;-62
2022/09/13 05:20:20;;;;;;;0.50;0.50;;;13.90;99.90;;;;;;4326352;32;20092;-62
2022/09/13 05:22:45;;;;;;;2.30;0.93;;;13.80;99.90;;;;;;4311883;32;20441;-63
2022/09/13 05:25:11;;;;;;;0.60;0.60;;;14.00;99.90;;;;;;4288084;32;20413;-62
2022/09/13 05:27:37;;;;;;;0.37;0.37;;;14.10;99.90;;;;;;4330298;32;20084;-62
2022/09/13 05:30:03;;;;;;;0.60;0.60;;;14.10;99.90;;;;;;4342697;32;20294;-62
2022/09/13 05:32:30;;;;;;;0.62;0.52;;;14.10;99.90;;;;;;4336524;32;21305;-62
2022/09/13 05:34:56;;;;;;;0.50;0.50;;;14.00;99.90;;;;;;4341419;32;20900;-62
2022/09/13 05:37:22;;;;;;;0.40;0.40;;;14.00;99.90;;;;;;4343759;32;20692;-62
2022/09/13 05:39:48;;;;;;;0.57;0.57;;;14.10;99.90;;;;;;4367441;32;20224;-62
2022/09/13 05:42:14;;;;;;;0.50;0.50;;;14.20;99.90;;;;;;4369619;32;20288;-62
2022/09/13 05:44:39;;;;;;;0.43;0.43;;;14.10;99.90;;;;;;4389548;32;20100;-62
2022/09/13 05:47:05;;;;;;;0.57;0.57;;;14.00;99.90;;;;;;4398784;32;20065;-63
2022/09/13 05:49:31;;;;;;;0.62;0.62;;;14.00;99.90;;;;;;4387225;32;20187;-62
2022/09/13 05:51:56;;;;;;;2.65;0.95;;;14.00;99.90;;;;;;4377472;32;20113;-62
2022/09/13 05:54:21;;;;;;;0.70;0.60;;;14.00;99.90;;;;;;4386181;32;20110;-63
2022/09/13 05:56:47;;;;;;;0.50;0.50;;;14.00;99.90;;;;;;4390162;32;20694;-63
2022/09/13 05:59:13;;;;;;;0.75;0.75;;;14.00;99.90;;;;;;4388786;32;20229;-63
2022/09/13 06:01:39;;;;;;;0.55;0.55;;;14.00;99.90;;;;;;4368277;32;21037;-63
2022/09/13 06:04:05;;;;;;;2.40;1.20;;;14.00;99.90;;;;;;4360004;32;20512;-63
2022/09/13 06:06:30;;;;;;;0.40;0.40;;;14.10;99.90;;;;;;4388227;32;20109;-63
2022/09/13 06:08:56;;;;;;;0.50;0.50;;;14.10;99.90;;;;;;4397403;32;20093;-63
2022/09/13 06:11:24;;;;;;;0.57;0.57;;;14.10;99.90;;;;;;4397325;32;20070;-63
2022/09/13 06:13:50;;;;;;;0.50;0.50;;;14.10;99.90;;;;;;4398692;32;20433;-63
2022/09/13 06:16:16;;;;;;;0.55;0.55;;;14.00;99.90;;;;;;4404077;32;21657;-63
2022/09/13 06:18:42;;;;;;;0.52;0.52;;;14.00;99.90;;;;;;4393839;32;20081;-63
2022/09/13 06:21:10;;;;;;;0.82;0.82;;;14.00;99.90;;;;;;4395451;32;20167;-64
2022/09/13 06:23:38;;;;;;;0.80;0.80;;;14.00;99.90;;;;;;4394504;32;20089;-64
2022/09/13 06:26:07;;;;;;;0.40;0.40;;;14.00;99.90;;;;;;4396415;32;20375;-63
2022/09/13 06:28:32;;;;;;;0.57;0.57;;;14.00;99.90;;;;;;4404453;32;20584;-65
2022/09/13 06:31:00;;;;;;;0.40;0.40;;;14.00;99.90;;;;;;4396729;32;20101;-65
2022/09/13 06:33:25;;;;;;;0.40;0.40;;;14.00;99.90;;;;;;4386634;32;20872;-65
2022/09/13 06:35:50;;;;;;;2.75;0.55;;;14.00;99.90;;;;;;4385302;32;20462;-63
2022/09/13 06:38:16;;;;;;;0.50;0.50;;;14.00;99.90;;;;;;4394203;32;20691;-64
2022/09/13 06:40:41;;;;;;;0.45;0.45;;;14.00;99.90;;;;;;4398084;32;20065;-65
2022/09/13 06:43:07;;;;;;;0.82;0.82;;;14.00;99.90;;;;;;4394968;32;20109;-66
2022/09/13 06:45:32;;;;;;;2.90;1.27;;;14.10;99.90;;;;;;4406323;32;20491;-66
2022/09/13 06:47:58;;;;;;;1.60;1.02;;;14.10;99.90;;;;;;4401774;32;20283;-64
2022/09/13 06:50:24;;;;;;;1.05;0.77;;;14.10;99.90;;;;;;4399393;32;20421;-65
2022/09/13 06:52:49;;;;;;;3.80;1.62;;;14.20;99.90;;;;;;4400624;32;20085;-65
2022/09/13 06:55:15;;;;;;;3.70;0.80;;;14.20;99.90;;;;;;4395592;32;20625;-65
2022/09/13 06:57:40;;;;;;;1.23;1.12;;;14.20;99.90;;;;;;4400942;32;20080;-65
2022/09/13 07:00:06;;;;;;;3.00;0.85;;;14.20;99.90;;;;;;4389608;32;23975;-65
2022/09/13 07:02:32;;;;;;;0.50;0.50;;;14.40;99.90;;;;;;4387661;32;20419;-65
2022/09/13 07:04:57;;;;;;;1.20;0.65;;;14.40;99.90;;;;;;4384161;32;20741;-65
2022/09/13 07:07:23;;;;;;;0.60;0.60;;;14.40;99.90;;;;;;4394614;32;20554;-65
2022/09/13 07:09:48;;;;;;;21.85;1.10;;;14.40;99.90;;;;;;4402246;32;20117;-65
2022/09/13 07:12:14;;;;;;;0.40;0.40;;;14.40;99.90;;;;;;4396055;32;20666;-65
2022/09/13 07:14:40;;;;;;;0.55;0.55;;;14.40;99.90;;;;;;4399047;32;20347;-65
2022/09/13 07:17:05;;;;;;;0.60;0.60;;;14.50;99.90;;;;;;4404186;32;20211;-65
2022/09/13 07:19:30;;;;;;;1.00;0.60;;;14.50;99.90;;;;;;4399562;32;20564;-65
2022/09/13 07:21:57;;;;;;;1.02;0.90;;;14.60;99.90;;;;;;4401804;32;20284;-65
2022/09/13 07:24:23;;;;;;;0.40;0.40;;;14.50;99.90;;;;;;4402303;32;20126;-65
2022/09/13 07:26:49;;;;;;;0.85;0.85;;;14.60;99.90;;;;;;4392111;32;20230;-65
2022/09/13 07:29:18;;;;;;;0.43;0.43;;;14.70;99.90;;;;;;4368046;32;20335;-65
2022/09/13 07:31:45;;;;;;;1.10;0.75;;;14.80;99.90;;;;;;4375850;32;20176;-64
2022/09/13 07:34:15;;;;;;;0.60;0.60;;;14.70;99.90;;;;;;4365950;32;20346;-64
2022/09/13 07:36:40;;;;;;;0.50;0.50;;;14.80;99.90;;;;;;4382977;32;20305;-64
2022/09/13 07:39:06;;;;;;;1.08;0.73;;;14.70;99.90;;;;;;4394645;32;20371;-65
2022/09/13 07:41:33;;;;;;;2.20;1.17;;;14.70;99.90;;;;;;4398690;32;20081;-65
2022/09/13 07:44:00;;;;;;;0.80;0.80;;;14.80;99.90;;;;;;4405006;32;20550;-65
2022/09/13 07:46:27;;;;;;;12.10;1.95;;;14.90;99.90;;;;;;4409224;32;20349;-64
2022/09/13 07:48:55;;;;;;;0.60;0.60;;;14.90;99.90;;;;;;4384991;32;20105;-65
2022/09/13 07:51:24;;;;;;;0.70;0.70;;;15.00;99.90;;;;;;4378718;32;20557;-64
2022/09/13 07:53:53;;;;;;;0.50;0.50;;;15.00;99.90;;;;;;4385133;32;20579;-64
2022/09/13 07:56:21;;;;;;;0.57;0.57;;;15.00;99.90;;;;;;4396778;32;20794;-64
2022/09/13 07:58:48;;;;;;;0.50;0.50;;;15.10;99.90;;;;;;4398289;32;20863;-64
2022/09/13 08:01:19;;;;;;;1.00;0.50;;;15.20;99.90;;;;;;4400674;32;20575;-65
2022/09/13 08:03:50;;;;;;;2.50;0.85;;;15.10;99.90;;;;;;4381581;32;20832;-64
2022/09/13 08:06:16;;;;;;;0.65;0.65;;;15.20;99.90;;;;;;4388243;32;20109;-64
2022/09/13 08:08:41;;;;;;;0.40;0.40;;;15.30;99.90;;;;;;4384402;32;20607;-64
2022/09/13 08:11:07;;;;;;;2.70;0.62;;;15.30;99.90;;;;;;4396368;32;20219;-64
2022/09/13 08:13:32;;;;;;;2.10;0.47;;;15.40;99.90;;;;;;4396433;32;20617;-65
2022/09/13 08:16:04;;;;;;;3.10;0.98;;;15.50;99.90;;;;;;4394718;32;20134;-65
2022/09/13 08:18:30;;;;;;;0.85;0.60;;;15.50;99.90;;;;;;4387803;32;20177;-65
2022/09/13 08:20:57;;;;;;;0.70;0.70;;;15.50;99.90;;;;;;4396118;32;20520;-65
2022/09/13 08:23:23;;;;;;;0.68;0.40;;;15.40;99.90;;;;;;4392250;32;20101;-65
2022/09/13 08:25:49;;;;;;;0.80;0.80;;;15.40;99.90;;;;;;4393696;32;20898;-64
2022/09/13 08:28:16;;;;;;;0.30;0.30;;;15.40;99.90;;;;;;4395906;32;20104;-64
2022/09/13 08:30:42;;;;;;;0.75;0.75;;;15.50;99.90;;;;;;4393929;32;20728;-64
2022/09/13 08:33:10;;;;;;;0.98;0.65;;;15.50;99.90;;;;;;4382431;32;179107;-64
2022/09/13 08:35:37;;;;;;;1.65;0.95;;;15.60;99.90;;;;;;4395106;32;20625;-65
2022/09/13 08:38:03;;;;;;;2.60;0.90;;;15.70;99.90;;;;;;4383026;32;20085;-65
2022/09/13 08:40:37;;;;;;;0.60;0.60;;;15.80;99.90;;;;;;4391300;32;20643;-64
2022/09/13 08:43:29;;;;;;;7.78;0.90;;;15.90;99.90;;;;;;4395383;32;20610;-65
2022/09/13 08:46:04;;;;;;;1.08;0.45;;;15.90;99.90;;;;;;4385925;32;20120;-65
2022/09/13 08:48:35;;;;;;;0.98;0.98;;;16.10;99.90;;;;;;4390951;32;21720;-64
2022/09/13 08:51:03;;;;;;;;;;;16.20;99.90;;;;;;4397698;32;20076;-64
2022/09/13 08:53:31;;;;;;;3.70;1.42;;;16.30;99.90;;;;;;4404404;32;20495;-64
2022/09/13 08:56:06;;;;;;;0.60;0.60;;;16.50;99.90;;;;;;4403054;32;20859;-64
2022/09/13 08:58:43;;;;;;;0.80;0.70;;;16.60;99.90;;;;;;4388421;32;20096;-65
2022/09/13 09:01:48;;;;;;;0.82;0.82;;;16.80;99.90;;;;;;4387367;32;20438;-64
2022/09/13 09:04:26;;;;;;;0.50;0.50;;;17.00;99.90;;;;;;4379602;32;20790;-65
2022/09/13 09:07:04;;;;;;;0.70;0.68;;;17.10;99.90;;;;;;4391538;32;20197;-65
2022/09/13 09:09:34;;;;;;;0.52;0.50;;;17.20;99.90;;;;;;4399591;32;20080;-64
2022/09/13 09:12:07;;;;;;;0.60;0.60;;;17.30;99.90;;;;;;4395338;32;20105;-64
2022/09/13 09:14:40;;;;;;;0.40;0.40;;;17.40;99.90;;;;;;4382667;32;20910;-64
2022/09/13 09:17:15;;;;;;;0.50;0.50;;;17.50;99.90;;;;;;4382878;32;21704;-64
2022/09/13 09:19:44;;;;;;;0.60;0.60;;;17.60;99.90;;;;;;4380907;32;20370;-65
2022/09/13 09:22:16;;;;;;;0.60;0.60;;;17.60;99.90;;;;;;4339702;32;20675;-64
2022/09/13 09:24:46;;;;;;;0.60;0.60;;;17.70;99.90;;;;;;4344954;32;21012;-64
2022/09/13 09:27:16;;;;;;;0.75;0.75;;;17.70;99.90;;;;;;4352177;32;20291;-63
2022/09/13 09:29:43;;;;;;;0.60;0.60;;;17.70;99.90;;;;;;4354360;32;20084;-63
2022/09/13 09:32:35;;;;;;;2.47;0.80;;;17.70;99.90;;;;;;4346222;32;21825;-64
2022/09/13 09:35:23;;;;;;;0.35;0.35;;;17.90;99.90;;;;;;4372377;32;20156;-64
2022/09/13 09:38:06;;;;;;;2.25;1.12;;;17.90;99.90;;;;;;4382856;32;20482;-64
2022/09/13 09:40:34;;;;;;;3.12;0.68;;;18.10;99.90;;;;;;4398682;32;20183;-63
2022/09/13 09:43:08;;;;;;;1.10;1.00;;;18.10;99.90;;;;;;4396173;32;20139;-64
2022/09/13 09:45:40;;;;;;;0.40;0.40;;;18.20;99.90;;;;;;4395014;32;20207;-62
2022/09/13 09:48:11;;;;;;;1.17;1.05;;;18.40;99.90;;;;;;4379850;32;20105;-62
2022/09/13 09:50:43;;;;;;;0.55;0.55;;;18.50;99.90;;;;;;4369240;32;20459;-63
2022/09/13 09:53:17;;;;;;;0.47;0.47;;;18.70;99.90;;;;;;4374975;32;20109;-64
2022/09/13 09:55:59;;;;;;;0.57;0.57;;;18.80;99.90;;;;;;4388737;32;20097;-63
2022/09/13 09:58:37;;;;;;;0.50;0.50;;;18.80;99.90;;;;;;4385409;32;20750;-64
2022/09/13 10:01:04;;;;;;;0.98;0.50;;;18.70;99.90;;;;;;4377269;32;20460;-63
2022/09/13 10:03:32;;;;;;;1.23;1.08;;;18.70;99.90;;;;;;4372013;32;20117;-62
2022/09/13 10:06:19;;;;;;;0.57;0.57;;;18.90;99.90;;;;;;4386662;32;20323;-63
2022/09/13 10:09:04;;;;;;;0.50;0.50;;;19.10;99.90;;;;;;4390916;32;20682;-63
2022/09/13 10:11:51;;;;;;;0.50;0.50;;;19.30;99.90;;;;;;4398412;32;20152;-63
2022/09/13 10:14:40;;;;;;;0.40;0.40;;;19.50;99.90;;;;;;4396829;32;20096;-62
2022/09/13 10:17:27;;;;;;;0.40;0.40;;;19.60;99.90;;;;;;4366636;32;20097;-64
2022/09/13 10:20:00;;;;;;;0.52;0.52;;;19.70;99.90;;;;;;4363328;32;20312;-64
2022/09/13 10:22:29;;;;;;;0.45;0.45;;;19.90;99.90;;;;;;4371385;32;20209;-62
2022/09/13 10:25:14;;;;;;;0.45;0.45;;;20.00;99.90;;;;;;4387809;32;20384;-62
2022/09/13 10:27:46;;;;;;;0.40;0.40;;;20.00;99.90;;;;;;4398609;32;20668;-63
2022/09/13 10:30:30;;;;;;;0.50;0.50;;;19.90;99.90;;;;;;4383861;32;20136;-63
2022/09/13 10:32:57;;;;;;;0.60;0.60;;;19.80;99.90;;;;;;4379833;32;20121;-63
2022/09/13 10:35:23;;;;;;;0.40;0.40;;;19.80;99.90;;;;;;4391881;32;20119;-63
2022/09/13 10:37:49;;;;;;;0.62;0.60;;;19.70;99.90;;;;;;4395868;32;20707;-62
2022/09/13 10:40:22;;;;;;;0.60;0.60;;;19.70;99.90;;;;;;4406260;32;20192;-63
2022/09/13 10:42:53;;;;;;;0.40;0.40;;;19.60;99.90;;;;;;4404301;32;20113;-63
2022/09/13 10:45:23;;;;;;;0.98;0.93;;;19.60;99.90;;;;;;4398852;32;20104;-62
2022/09/13 10:47:53;;;;;;;0.50;0.50;;;19.70;99.90;;;;;;4388775;32;20139;-62
2022/09/13 10:50:24;;;;;;;0.57;0.50;;;19.70;99.90;;;;;;4379322;32;20245;-62
2022/09/13 10:52:50;;;;;;;;;;;19.80;99.90;;;;;;4364970;32;20398;-63
2022/09/13 10:55:19;;;;;;;0.50;0.50;;;19.70;99.90;;;;;;4369103;32;19964;-63
2022/09/13 10:57:49;;;;;;;0.40;0.40;;;19.80;99.90;;;;;;4379085;32;20960;-63
2022/09/13 11:00:19;;;;;;;0.52;0.50;;;19.70;99.90;;;;;;4382564;32;20163;-63
2022/09/13 11:02:51;;;;;;;0.82;0.57;;;19.80;99.90;;;;;;4377469;32;20217;-63
2022/09/13 11:05:25;;;;;;;1.50;0.50;;;19.70;99.90;;;;;;4383187;32;20212;-63
2022/09/13 11:08:13;;;;;;;2.50;0.60;;;19.70;99.90;;;;;;4383142;32;20732;-63
2022/09/13 11:10:54;;;;;;;0.50;0.50;;;19.60;99.90;;;;;;4391326;32;20096;-63
2022/09/13 11:13:59;;;;;;;0.40;0.40;;;19.50;99.90;;;;;;4397215;32;20826;-63
2022/09/13 11:16:49;;;;;;;0.50;0.50;;;19.40;99.90;;;;;;4380837;32;20109;-64
2022/09/13 11:19:54;;;;;;;0.68;0.60;;;19.20;99.90;;;;;;4377711;32;20643;-63
2022/09/13 11:22:46;;;;;;;4.87;1.17;;;19.00;99.90;;;;;;4362785;32;20105;-63
2022/09/13 11:25:31;;;;;;;0.75;0.75;;;18.90;99.90;;;;;;4378186;32;20140;-63
2022/09/13 11:28:36;;;;;;;0.40;0.40;;;18.70;99.90;;;;;;4383065;32;20203;-64
2022/09/13 11:31:42;;;;;;;0.43;0.43;;;18.60;99.90;;;;;;4377689;32;20172;-63
2022/09/13 11:34:35;;;;;;;1.10;0.70;;;18.50;99.90;;;;;;4367802;32;20521;-63
2022/09/13 11:37:19;;;;;;;0.68;0.68;;;18.40;99.90;;;;;;4384760;32;20734;-63
2022/09/13 11:39:56;;;;;;;1.87;1.30;;;18.30;99.90;;;;;;4391036;32;20155;-63
2022/09/13 11:42:53;;;;;;;0.50;0.50;;;18.30;99.90;;;;;;4390166;32;20098;-63
2022/09/13 11:45:25;;;;;;;0.40;0.40;;;18.30;99.90;;;;;;4379620;32;20377;-61
2022/09/13 11:48:21;;;;;;;0.40;0.40;;;18.30;99.90;;;;;;4369957;32;20784;-63
2022/09/13 11:51:17;;;;;;;0.77;0.77;;;18.20;99.90;;;;;;4375435;32;20085;-64
2022/09/13 11:53:49;;;;;;;5.47;0.75;;;18.20;99.90;;;;;;4376055;32;20101;-64
2022/09/13 11:56:23;;;;;;;0.50;0.50;;;18.10;99.90;;;;;;4388779;32;20752;-64
2022/09/13 11:58:53;;;;;;;0.45;0.45;;;18.10;99.90;;;;;;4379260;32;20299;-65
2022/09/13 12:01:25;;;;;;;0.82;0.52;;;18.20;99.90;;;;;;4388223;32;20104;-65
2022/09/13 12:03:59;;;;;;;0.60;0.60;;;18.20;99.90;;;;;;4363383;32;20463;-65
2022/09/13 12:06:44;;;;;;;0.43;0.43;;;18.20;99.90;;;;;;4389573;32;20154;-65
2022/09/13 12:09:22;;;;;;;0.43;0.43;;;18.20;99.90;;;;;;4393978;32;20871;-64
2022/09/13 12:11:57;;;;;;;1.73;0.70;;;18.20;99.90;;;;;;4393728;32;20097;-65
2022/09/13 12:14:26;;;;;;;0.40;0.40;;;18.20;99.90;;;;;;4389522;32;20208;-65
2022/09/13 12:16:58;;;;;;;1.48;1.27;;;18.20;99.90;;;;;;4382072;32;20145;-64
2022/09/13 12:19:28;;;;;;;0.50;0.50;;;18.20;99.90;;;;;;4376748;32;20737;-64
2022/09/13 12:21:56;;;;;;;;;;;18.30;99.90;;;;;;4381876;32;20546;-64
2022/09/13 12:24:49;;;;;;;0.60;0.60;;;18.30;99.90;;;;;;4385866;32;19969;-64
2022/09/13 12:27:38;;;;;;;0.40;0.40;;;18.30;99.90;;;;;;4392535;32;20420;-64
2022/09/13 12:30:15;;;;;;;3.35;0.98;;;18.30;99.90;;;;;;4377310;32;20166;-64
2022/09/13 12:32:44;;;;;;;0.60;0.60;;;18.30;99.90;;;;;;4366697;32;20316;-64
2022/09/13 12:35:23;;;;;;;0.50;0.50;;;18.30;99.90;;;;;;4385225;32;20517;-64
2022/09/13 12:38:01;;;;;;;1.30;0.68;;;18.30;99.90;;;;;;4392606;32;20073;-64
2022/09/13 12:40:45;;;;;;;0.82;0.82;;;18.30;99.90;;;;;;4403260;32;20240;-64
2022/09/13 12:43:36;;;;;;;0.98;0.88;;;18.30;99.90;;;;;;4409983;32;20242;-64
2022/09/13 12:46:38;;;;;;;2.90;0.60;;;18.30;99.90;;;;;;4398789;32;20101;-64
2022/09/13 12:49:43;;;;;;;0.82;0.57;;;18.50;99.90;;;;;;4391319;32;20179;-64
2022/09/13 12:52:31;;;;;;;0.50;0.45;;;18.60;99.90;;;;;;4389879;32;20526;-64
2022/09/13 12:55:38;;;;;;;1.75;0.40;;;18.70;99.90;;;;;;4408453;32;20069;-64
2022/09/13 12:58:27;;;;;;;1.83;0.80;;;18.70;99.90;;;;;;4407544;32;20077;-64
2022/09/13 13:01:12;;;;;;;3.08;1.70;;;18.70;99.90;;;;;;4398863;32;20288;-64
2022/09/13 13:03:48;;;;;;;1.02;0.68;;;18.70;99.90;;;;;;4384904;32;20363;-64
2022/09/13 13:06:27;;;;;;;0.35;0.35;;;18.70;99.90;;;;;;4411571;32;20180;-64
2022/09/13 13:08:55;;;;;;;1.17;0.75;;;18.70;99.90;;;;;;4417655;32;20179;-64
2022/09/13 13:11:25;;;;;;;1.35;0.80;;;18.70;99.90;;;;;;4419867;32;20152;-64
2022/09/13 13:14:01;;;;;;;1.08;0.70;;;18.70;99.90;;;;;;4412378;32;20117;-64
2022/09/13 13:16:30;;;;;;;1.25;0.75;;;18.70;99.90;;;;;;4406777;32;20365;-64